Terminal Aerodrome Forecast
Issued by NWS Bismarck, ND

Home | Current Version | Previous Version | Text Only | Print | Product List | Glossary Off
Versions: 1 2 3 4 5 6 7 8 9 10 11 12 13 14 15

000
FTUS43 KBIS 120500
TAFISN
TAF
KISN 120540Z 1206/1306 VRB06KT P6SM BKN110
     FM120900 00000KT 2SM BR SCT110
     FM121300 28015KT P6SM FEW250=

USA.gov is the U.S. government's official web portal to all federal, state and local government web resources and services.